Terminal Aerodrome Forecast
Issued by NWS

Home | Current Version | Previous Version | Text Only | Print | Product List | Glossary On
Versions: 1 2 3 4 5 6 7 8 9 10 11 12 13 14 15
000
FTUS46 KSEW 311000 AAA
TAFCLM
TAF AMD
KCLM 311025Z 3110/0106 27006KT P6SM SCT025 BKN080
     FM311700 26005KT P6SM SCT025 BKN080
     FM311900 32006KT P6SM SCT050 SCT100
     FM010300 29005KT P6SM SCT050 BKN100=

USA.gov is the U.S. government's official web portal to all federal, state and local government web resources and services.